sensor_id;sensor_type;location;lat;lon;timestamp;pressure;altitude;pressure_sealevel;temperature;humidity
56582;BME280;42463;52.214;21.238;2023-01-28T00:00:52;101098.60;;;2.42;70.50
56582;BME280;42463;52.214;21.238;2023-01-28T00:03:19;101097.67;;;2.41;70.53
56582;BME280;42463;52.214;21.238;2023-01-28T00:05:48;101101.85;;;2.41;70.49
56582;BME280;42463;52.214;21.238;2023-01-28T00:08:14;101103.31;;;2.43;70.54
56582;BME280;42463;52.214;21.238;2023-01-28T00:10:42;101105.80;;;2.44;70.70
56582;BME280;42463;52.214;21.238;2023-01-28T00:13:10;101104.21;;;2.48;70.77
56582;BME280;42463;52.214;21.238;2023-01-28T00:15:55;101103.09;;;2.53;70.61
56582;BME280;42463;52.214;21.238;2023-01-28T00:18:22;101106.11;;;2.58;70.65
56582;BME280;42463;52.214;21.238;2023-01-28T00:21:00;101106.40;;;2.57;70.37
56582;BME280;42463;52.214;21.238;2023-01-28T00:23:31;101104.48;;;2.55;70.36
56582;BME280;42463;52.214;21.238;2023-01-28T00:26:10;101106.42;;;2.57;70.39
56582;BME280;42463;52.214;21.238;2023-01-28T00:28:39;101107.41;;;2.56;70.19
56582;BME280;42463;52.214;21.238;2023-01-28T00:31:12;101103.04;;;2.55;70.31
56582;BME280;42463;52.214;21.238;2023-01-28T00:33:51;101101.30;;;2.52;70.23
56582;BME280;42463;52.214;21.238;2023-01-28T00:36:24;101098.79;;;2.49;70.38
56582;BME280;42463;52.214;21.238;2023-01-28T00:39:09;101101.22;;;2.50;70.75
56582;BME280;42463;52.214;21.238;2023-01-28T00:42:05;101099.02;;;2.54;70.76
56582;BME280;42463;52.214;21.238;2023-01-28T00:44:39;101100.81;;;2.59;70.80
56582;BME280;42463;52.214;21.238;2023-01-28T00:47:36;101101.08;;;2.63;70.51
56582;BME280;42463;52.214;21.238;2023-01-28T00:50:06;101101.90;;;2.66;70.52
56582;BME280;42463;52.214;21.238;2023-01-28T00:52:31;101101.48;;;2.68;70.28
56582;BME280;42463;52.214;21.238;2023-01-28T00:54:57;101100.57;;;2.68;70.49
56582;BME280;42463;52.214;21.238;2023-01-28T00:57:23;101101.75;;;2.70;70.32
56582;BME280;42463;52.214;21.238;2023-01-28T00:59:48;101098.27;;;2.70;70.02
56582;BME280;42463;52.214;21.238;2023-01-28T01:02:14;101097.75;;;2.64;69.97
56582;BME280;42463;52.214;21.238;2023-01-28T01:04:42;101096.64;;;2.58;70.14
56582;BME280;42463;52.214;21.238;2023-01-28T01:07:17;101099.30;;;2.51;70.22
56582;BME280;42463;52.214;21.238;2023-01-28T01:09:43;101101.04;;;2.48;70.45
56582;BME280;42463;52.214;21.238;2023-01-28T01:12:11;101097.80;;;2.50;70.40
56582;BME280;42463;52.214;21.238;2023-01-28T01:14:36;101096.88;;;2.48;70.36
56582;BME280;42463;52.214;21.238;2023-01-28T01:17:01;101103.25;;;2.51;70.58
56582;BME280;42463;52.214;21.238;2023-01-28T01:19:26;101099.39;;;2.51;70.53
56582;BME280;42463;52.214;21.238;2023-01-28T01:21:52;101098.47;;;2.56;70.60
56582;BME280;42463;52.214;21.238;2023-01-28T01:24:19;101100.89;;;2.61;70.50
56582;BME280;42463;52.214;21.238;2023-01-28T01:26:47;101101.27;;;2.68;70.27
56582;BME280;42463;52.214;21.238;2023-01-28T01:29:16;101100.12;;;2.72;70.22
56582;BME280;42463;52.214;21.238;2023-01-28T01:31:41;101096.81;;;2.74;70.09
56582;BME280;42463;52.214;21.238;2023-01-28T01:34:09;101097.63;;;2.73;69.92
56582;BME280;42463;52.214;21.238;2023-01-28T01:36:35;101094.26;;;2.74;70.19
56582;BME280;42463;52.214;21.238;2023-01-28T01:39:00;101092.77;;;2.81;70.26
56582;BME280;42463;52.214;21.238;2023-01-28T01:41:28;101091.30;;;2.84;69.80
56582;BME280;42463;52.214;21.238;2023-01-28T01:43:56;101092.09;;;2.82;69.65
56582;BME280;42463;52.214;21.238;2023-01-28T01:46:29;101092.98;;;2.80;69.90
56582;BME280;42463;52.214;21.238;2023-01-28T01:48:59;101093.67;;;2.78;69.62
56582;BME280;42463;52.214;21.238;2023-01-28T01:51:29;101096.34;;;2.76;69.57
56582;BME280;42463;52.214;21.238;2023-01-28T01:53:59;101095.83;;;2.75;69.87
56582;BME280;42463;52.214;21.238;2023-01-28T01:56:31;101091.88;;;2.69;69.91
56582;BME280;42463;52.214;21.238;2023-01-28T01:58:58;101098.21;;;2.74;70.07
56582;BME280;42463;52.214;21.238;2023-01-28T02:01:45;101091.80;;;2.75;70.27
56582;BME280;42463;52.214;21.238;2023-01-28T02:04:12;101094.37;;;2.79;70.00
56582;BME280;42463;52.214;21.238;2023-01-28T02:06:46;101092.86;;;2.81;69.85
56582;BME280;42463;52.214;21.238;2023-01-28T02:09:25;101094.98;;;2.82;69.66
56582;BME280;42463;52.214;21.238;2023-01-28T02:11:52;101095.27;;;2.85;70.02
56582;BME280;42463;52.214;21.238;2023-01-28T02:14:23;101100.77;;;2.90;69.99
56582;BME280;42463;52.214;21.238;2023-01-28T02:16:52;101096.44;;;2.95;70.00
56582;BME280;42463;52.214;21.238;2023-01-28T02:19:20;101098.48;;;2.96;69.55
56582;BME280;42463;52.214;21.238;2023-01-28T02:22:12;101096.70;;;2.93;69.54
56582;BME280;42463;52.214;21.238;2023-01-28T02:27:56;101104.40;;;2.88;69.62
56582;BME280;42463;52.214;21.238;2023-01-28T02:30:34;101099.33;;;2.87;69.54
56582;BME280;42463;52.214;21.238;2023-01-28T02:33:07;101097.80;;;2.88;69.65
56582;BME280;42463;52.214;21.238;2023-01-28T02:35:39;101100.23;;;2.90;69.63
56582;BME280;42463;52.214;21.238;2023-01-28T02:38:10;101098.96;;;2.92;69.56
56582;BME280;42463;52.214;21.238;2023-01-28T02:40:41;101096.71;;;2.89;69.81
56582;BME280;42463;52.214;21.238;2023-01-28T02:43:34;101099.08;;;2.87;69.80
56582;BME280;42463;52.214;21.238;2023-01-28T02:46:12;101097.58;;;2.90;70.13
56582;BME280;42463;52.214;21.238;2023-01-28T02:49:20;101100.73;;;2.92;69.83
56582;BME280;42463;52.214;21.238;2023-01-28T02:52:08;101102.14;;;2.89;69.75
56582;BME280;42463;52.214;21.238;2023-01-28T02:54:43;101099.16;;;2.87;70.09
56582;BME280;42463;52.214;21.238;2023-01-28T02:57:32;101100.02;;;2.86;69.97
56582;BME280;42463;52.214;21.238;2023-01-28T03:00:07;101101.04;;;2.86;70.11
56582;BME280;42463;52.214;21.238;2023-01-28T03:02:39;101103.25;;;2.84;70.03
56582;BME280;42463;52.214;21.238;2023-01-28T03:05:11;101106.61;;;2.86;70.24
56582;BME280;42463;52.214;21.238;2023-01-28T03:07:40;101104.38;;;2.85;70.33
56582;BME280;42463;52.214;21.238;2023-01-28T03:10:08;101105.59;;;2.84;70.28
56582;BME280;42463;52.214;21.238;2023-01-28T03:12:40;101104.54;;;2.82;70.47
56582;BME280;42463;52.214;21.238;2023-01-28T03:15:32;101104.34;;;2.82;70.24
56582;BME280;42463;52.214;21.238;2023-01-28T03:18:19;101105.58;;;2.83;70.51
56582;BME280;42463;52.214;21.238;2023-01-28T03:21:11;101111.23;;;2.83;70.43
56582;BME280;42463;52.214;21.238;2023-01-28T03:24:02;101110.25;;;2.81;70.21
56582;BME280;42463;52.214;21.238;2023-01-28T03:26:50;101112.77;;;2.75;70.50
56582;BME280;42463;52.214;21.238;2023-01-28T03:29:37;101111.63;;;2.78;70.68
56582;BME280;42463;52.214;21.238;2023-01-28T03:32:23;101110.36;;;2.77;70.35
56582;BME280;42463;52.214;21.238;2023-01-28T03:35:09;101104.29;;;2.76;70.65
56582;BME280;42463;52.214;21.238;2023-01-28T03:37:54;101104.64;;;2.74;70.85
56582;BME280;42463;52.214;21.238;2023-01-28T03:40:22;101108.10;;;2.76;70.76
56582;BME280;42463;52.214;21.238;2023-01-28T03:42:48;101102.75;;;2.81;70.98
56582;BME280;42463;52.214;21.238;2023-01-28T03:45:31;101102.02;;;2.81;70.68
56582;BME280;42463;52.214;21.238;2023-01-28T03:48:10;101107.36;;;2.80;70.41
56582;BME280;42463;52.214;21.238;2023-01-28T03:50:36;101102.20;;;2.77;70.73
56582;BME280;42463;52.214;21.238;2023-01-28T03:53:02;101110.12;;;2.81;70.60
56582;BME280;42463;52.214;21.238;2023-01-28T03:55:57;101105.17;;;2.83;70.48
56582;BME280;42463;52.214;21.238;2023-01-28T03:58:22;101109.15;;;2.81;70.63
56582;BME280;42463;52.214;21.238;2023-01-28T04:00:53;101104.92;;;2.79;70.51
56582;BME280;42463;52.214;21.238;2023-01-28T04:03:22;101104.63;;;2.76;70.46
56582;BME280;42463;52.214;21.238;2023-01-28T04:06:14;101098.38;;;2.74;70.68
56582;BME280;42463;52.214;21.238;2023-01-28T04:09:05;101101.19;;;2.72;70.50
56582;BME280;42463;52.214;21.238;2023-01-28T04:11:53;101099.42;;;2.69;70.62
56582;BME280;42463;52.214;21.238;2023-01-28T04:14:23;101104.80;;;2.67;70.87
56582;BME280;42463;52.214;21.238;2023-01-28T04:16:56;101107.85;;;2.64;70.74
56582;BME280;42463;52.214;21.238;2023-01-28T04:19:23;101109.44;;;2.63;71.09
56582;BME280;42463;52.214;21.238;2023-01-28T04:21:49;101108.84;;;2.65;71.08
56582;BME280;42463;52.214;21.238;2023-01-28T04:24:17;101107.67;;;2.70;71.06
56582;BME280;42463;52.214;21.238;2023-01-28T04:26:45;101109.14;;;2.68;70.89
56582;BME280;42463;52.214;21.238;2023-01-28T04:29:12;101106.09;;;2.69;70.87
56582;BME280;42463;52.214;21.238;2023-01-28T04:31:37;101109.17;;;2.71;71.01
56582;BME280;42463;52.214;21.238;2023-01-28T04:34:37;101112.32;;;2.74;70.95
56582;BME280;42463;52.214;21.238;2023-01-28T04:37:31;101111.05;;;2.76;70.53
56582;BME280;42463;52.214;21.238;2023-01-28T04:40:22;101090.08;;;2.58;70.47
56582;BME280;42463;52.214;21.238;2023-01-28T04:42:55;101111.39;;;2.67;70.48
56582;BME280;42463;52.214;21.238;2023-01-28T04:45:49;101115.02;;;2.64;70.80
56582;BME280;42463;52.214;21.238;2023-01-28T04:48:33;101114.34;;;2.65;70.79
56582;BME280;42463;52.214;21.238;2023-01-28T04:51:17;101112.43;;;2.67;70.97
56582;BME280;42463;52.214;21.238;2023-01-28T04:54:04;101110.80;;;2.69;70.71
56582;BME280;42463;52.214;21.238;2023-01-28T04:56:31;101107.80;;;2.70;70.72
56582;BME280;42463;52.214;21.238;2023-01-28T04:58:58;101113.59;;;2.74;70.91
56582;BME280;42463;52.214;21.238;2023-01-28T05:01:24;101113.58;;;2.80;70.65
56582;BME280;42463;52.214;21.238;2023-01-28T05:03:50;101118.33;;;2.83;70.70
56582;BME280;42463;52.214;21.238;2023-01-28T05:06:20;101116.46;;;2.86;70.52
56582;BME280;42463;52.214;21.238;2023-01-28T05:08:50;101118.60;;;2.85;70.30
56582;BME280;42463;52.214;21.238;2023-01-28T05:11:14;101118.25;;;2.87;70.53
56582;BME280;42463;52.214;21.238;2023-01-28T05:13:40;101122.39;;;2.85;70.21
56582;BME280;42463;52.214;21.238;2023-01-28T05:16:08;101123.86;;;2.81;70.01
56582;BME280;42463;52.214;21.238;2023-01-28T05:18:33;101125.06;;;2.78;70.38
56582;BME280;42463;52.214;21.238;2023-01-28T05:21:07;101125.14;;;2.75;70.48
56582;BME280;42463;52.214;21.238;2023-01-28T05:23:34;101119.27;;;2.72;70.50
56582;BME280;42463;52.214;21.238;2023-01-28T05:25:59;101120.39;;;2.68;70.29
56582;BME280;42463;52.214;21.238;2023-01-28T05:28:29;101124.48;;;2.68;70.69
56582;BME280;42463;52.214;21.238;2023-01-28T05:30:56;101121.92;;;2.69;70.81
56582;BME280;42463;52.214;21.238;2023-01-28T05:33:20;101124.75;;;2.71;70.45
56582;BME280;42463;52.214;21.238;2023-01-28T05:35:49;101127.38;;;2.67;70.31
56582;BME280;42463;52.214;21.238;2023-01-28T05:38:18;101131.30;;;2.65;70.63
56582;BME280;42463;52.214;21.238;2023-01-28T05:40:45;101131.90;;;2.69;70.80
56582;BME280;42463;52.214;21.238;2023-01-28T05:43:17;101117.26;;;2.62;70.89
56582;BME280;42463;52.214;21.238;2023-01-28T05:45:59;101135.65;;;2.69;70.50
56582;BME280;42463;52.214;21.238;2023-01-28T05:48:30;101136.39;;;2.69;70.66
56582;BME280;42463;52.214;21.238;2023-01-28T05:51:25;101134.41;;;2.66;70.51
56582;BME280;42463;52.214;21.238;2023-01-28T05:53:54;101133.56;;;2.61;70.41
56582;BME280;42463;52.214;21.238;2023-01-28T05:56:30;101135.97;;;2.59;70.77
56582;BME280;42463;52.214;21.238;2023-01-28T05:58:56;101134.39;;;2.59;70.83
56582;BME280;42463;52.214;21.238;2023-01-28T06:01:21;101139.16;;;2.64;70.90
56582;BME280;42463;52.214;21.238;2023-01-28T06:03:57;101130.45;;;2.62;70.81
56582;BME280;42463;52.214;21.238;2023-01-28T06:06:31;101133.45;;;2.68;70.89
56582;BME280;42463;52.214;21.238;2023-01-28T06:08:55;101139.34;;;2.71;70.91
56582;BME280;42463;52.214;21.238;2023-01-28T06:11:25;101142.84;;;2.73;70.85
56582;BME280;42463;52.214;21.238;2023-01-28T06:13:54;101149.71;;;2.69;70.49
56582;BME280;42463;52.214;21.238;2023-01-28T06:16:24;101154.42;;;2.64;70.56
56582;BME280;42463;52.214;21.238;2023-01-28T06:18:56;101156.47;;;2.64;70.78
56582;BME280;42463;52.214;21.238;2023-01-28T06:21:21;101154.92;;;2.65;70.71
56582;BME280;42463;52.214;21.238;2023-01-28T06:23:47;101153.59;;;2.67;70.67
56582;BME280;42463;52.214;21.238;2023-01-28T06:26:13;101154.00;;;2.67;70.96
56582;BME280;42463;52.214;21.238;2023-01-28T06:28:43;101155.88;;;2.72;70.85
56582;BME280;42463;52.214;21.238;2023-01-28T06:31:17;101161.07;;;2.77;70.93
56582;BME280;42463;52.214;21.238;2023-01-28T06:33:46;101158.41;;;2.82;70.84
56582;BME280;42463;52.214;21.238;2023-01-28T06:36:17;101162.48;;;2.82;70.77
56582;BME280;42463;52.214;21.238;2023-01-28T06:38:42;101167.55;;;2.81;70.52
56582;BME280;42463;52.214;21.238;2023-01-28T06:41:08;101166.34;;;2.82;70.69
56582;BME280;42463;52.214;21.238;2023-01-28T06:43:35;101171.25;;;2.86;70.63
56582;BME280;42463;52.214;21.238;2023-01-28T06:46:00;101172.73;;;2.87;70.57
56582;BME280;42463;52.214;21.238;2023-01-28T06:48:26;101173.74;;;2.82;70.34
56582;BME280;42463;52.214;21.238;2023-01-28T06:50:52;101155.22;;;2.65;70.53
56582;BME280;42463;52.214;21.238;2023-01-28T06:53:22;101172.11;;;2.77;70.76
56582;BME280;42463;52.214;21.238;2023-01-28T06:55:54;101172.33;;;2.80;70.90
56582;BME280;42463;52.214;21.238;2023-01-28T06:58:21;101172.62;;;2.84;71.16
56582;BME280;42463;52.214;21.238;2023-01-28T07:00:46;101176.11;;;2.86;70.91
56582;BME280;42463;52.214;21.238;2023-01-28T07:03:11;101174.38;;;2.85;70.64
56582;BME280;42463;52.214;21.238;2023-01-28T07:05:37;101180.33;;;2.81;70.78
56582;BME280;42463;52.214;21.238;2023-01-28T07:08:08;101180.23;;;2.77;70.77
56582;BME280;42463;52.214;21.238;2023-01-28T07:10:34;101185.34;;;2.76;70.52
56582;BME280;42463;52.214;21.238;2023-01-28T07:13:03;101184.30;;;2.73;70.93
56582;BME280;42463;52.214;21.238;2023-01-28T07:15:30;101190.79;;;2.74;71.18
56582;BME280;42463;52.214;21.238;2023-01-28T07:17:55;101191.19;;;2.76;71.19
56582;BME280;42463;52.214;21.238;2023-01-28T07:20:20;101189.04;;;2.71;70.75
56582;BME280;42463;52.214;21.238;2023-01-28T07:22:45;101192.02;;;2.62;71.10
56582;BME280;42463;52.214;21.238;2023-01-28T07:25:11;101186.17;;;2.60;71.34
56582;BME280;42463;52.214;21.238;2023-01-28T07:27:38;101183.27;;;2.62;71.60
56582;BME280;42463;52.214;21.238;2023-01-28T07:30:05;101185.30;;;2.63;71.28
56582;BME280;42463;52.214;21.238;2023-01-28T07:32:30;101194.26;;;2.66;71.84
56582;BME280;42463;52.214;21.238;2023-01-28T07:34:54;101192.91;;;2.70;71.69
56582;BME280;42463;52.214;21.238;2023-01-28T07:37:20;101191.63;;;2.70;71.97
56582;BME280;42463;52.214;21.238;2023-01-28T07:39:46;101196.45;;;2.70;71.61
56582;BME280;42463;52.214;21.238;2023-01-28T07:42:16;101197.60;;;2.72;71.63
56582;BME280;42463;52.214;21.238;2023-01-28T07:44:44;101196.52;;;2.75;71.44
56582;BME280;42463;52.214;21.238;2023-01-28T07:47:10;101196.49;;;2.78;71.74
56582;BME280;42463;52.214;21.238;2023-01-28T07:49:36;101193.67;;;2.80;71.42
56582;BME280;42463;52.214;21.238;2023-01-28T07:52:03;101192.11;;;2.77;71.58
56582;BME280;42463;52.214;21.238;2023-01-28T07:54:28;101195.27;;;2.80;71.85
56582;BME280;42463;52.214;21.238;2023-01-28T07:56:53;101194.38;;;2.80;71.50
56582;BME280;42463;52.214;21.238;2023-01-28T07:59:18;101199.10;;;2.79;71.49
56582;BME280;42463;52.214;21.238;2023-01-28T08:01:43;101198.15;;;2.79;71.57
56582;BME280;42463;52.214;21.238;2023-01-28T08:04:08;101195.16;;;2.80;71.47
56582;BME280;42463;52.214;21.238;2023-01-28T08:06:33;101192.23;;;2.82;71.64
56582;BME280;42463;52.214;21.238;2023-01-28T08:09:01;101191.97;;;2.85;71.28
56582;BME280;42463;52.214;21.238;2023-01-28T08:11:28;101196.21;;;2.88;71.34
56582;BME280;42463;52.214;21.238;2023-01-28T08:13:53;101196.27;;;2.89;71.29
56582;BME280;42463;52.214;21.238;2023-01-28T08:16:18;101193.10;;;2.89;71.15
56582;BME280;42463;52.214;21.238;2023-01-28T08:18:43;101196.83;;;2.87;71.13
56582;BME280;42463;52.214;21.238;2023-01-28T08:21:09;101194.66;;;2.86;71.14
56582;BME280;42463;52.214;21.238;2023-01-28T08:23:34;101193.85;;;2.81;71.01
56582;BME280;42463;52.214;21.238;2023-01-28T08:25:59;101194.52;;;2.76;71.15
56582;BME280;42463;52.214;21.238;2023-01-28T08:28:25;101202.00;;;2.71;71.54
56582;BME280;42463;52.214;21.238;2023-01-28T08:31:01;101206.48;;;2.73;71.53
56582;BME280;42463;52.214;21.238;2023-01-28T08:33:27;101199.56;;;2.71;71.56
56582;BME280;42463;52.214;21.238;2023-01-28T08:36:06;101200.31;;;2.69;71.74
56582;BME280;42463;52.214;21.238;2023-01-28T08:38:33;101197.80;;;2.69;71.67
56582;BME280;42463;52.214;21.238;2023-01-28T08:41:00;101197.78;;;2.71;71.93
56582;BME280;42463;52.214;21.238;2023-01-28T08:43:25;101201.09;;;2.74;71.90
56582;BME280;42463;52.214;21.238;2023-01-28T08:45:50;101198.21;;;2.77;71.60
56582;BME280;42463;52.214;21.238;2023-01-28T08:48:19;101201.46;;;2.77;71.67
56582;BME280;42463;52.214;21.238;2023-01-28T08:50:46;101201.43;;;2.80;71.66
56582;BME280;42463;52.214;21.238;2023-01-28T08:53:14;101198.73;;;2.82;71.70
56582;BME280;42463;52.214;21.238;2023-01-28T08:55:46;101199.88;;;2.84;71.49
56582;BME280;42463;52.214;21.238;2023-01-28T08:58:17;101196.08;;;2.86;71.50
56582;BME280;42463;52.214;21.238;2023-01-28T09:00:48;101201.73;;;2.84;71.38
56582;BME280;42463;52.214;21.238;2023-01-28T09:03:19;101199.38;;;2.84;71.75
56582;BME280;42463;52.214;21.238;2023-01-28T09:05:49;101200.24;;;2.90;71.72
56582;BME280;42463;52.214;21.238;2023-01-28T09:08:23;101203.36;;;2.93;71.61
56582;BME280;42463;52.214;21.238;2023-01-28T09:11:02;101209.32;;;2.94;71.51
56582;BME280;42463;52.214;21.238;2023-01-28T09:13:42;101208.74;;;2.91;71.31
56582;BME280;42463;52.214;21.238;2023-01-28T09:16:19;101212.38;;;2.88;71.41
56582;BME280;42463;52.214;21.238;2023-01-28T09:18:53;101213.45;;;2.83;71.47
56582;BME280;42463;52.214;21.238;2023-01-28T09:21:31;101219.37;;;2.81;71.55
56582;BME280;42463;52.214;21.238;2023-01-28T09:23:59;101222.81;;;2.85;71.67
56582;BME280;42463;52.214;21.238;2023-01-28T09:26:46;101226.75;;;2.84;71.72
56582;BME280;42463;52.214;21.238;2023-01-28T09:29:21;101228.88;;;2.85;71.98
56582;BME280;42463;52.214;21.238;2023-01-28T09:31:56;101229.66;;;2.92;71.92
56582;BME280;42463;52.214;21.238;2023-01-28T09:34:35;101229.46;;;2.98;71.95
56582;BME280;42463;52.214;21.238;2023-01-28T09:37:19;101224.27;;;2.98;71.68
56582;BME280;42463;52.214;21.238;2023-01-28T09:39:46;101215.23;;;2.93;71.78
56582;BME280;42463;52.214;21.238;2023-01-28T09:42:49;101206.52;;;2.87;71.48
56582;BME280;42463;52.214;21.238;2023-01-28T09:45:32;101228.77;;;3.01;71.19
56582;BME280;42463;52.214;21.238;2023-01-28T09:48:45;101227.06;;;3.01;71.44
56582;BME280;42463;52.214;21.238;2023-01-28T09:51:28;101220.74;;;2.99;71.37
56582;BME280;42463;52.214;21.238;2023-01-28T09:54:00;101222.37;;;2.98;71.60
56582;BME280;42463;52.214;21.238;2023-01-28T09:56:42;101222.08;;;2.97;71.41
56582;BME280;42463;52.214;21.238;2023-01-28T09:59:17;101216.34;;;2.92;71.22
56582;BME280;42463;52.214;21.238;2023-01-28T10:02:20;101214.89;;;2.90;71.36
56582;BME280;42463;52.214;21.238;2023-01-28T10:04:57;101212.26;;;2.91;71.37
56582;BME280;42463;52.214;21.238;2023-01-28T10:07:33;101213.70;;;2.94;71.48
56582;BME280;42463;52.214;21.238;2023-01-28T10:10:07;101208.14;;;2.95;71.36
56582;BME280;42463;52.214;21.238;2023-01-28T10:12:51;101209.29;;;2.91;71.32
56582;BME280;42463;52.214;21.238;2023-01-28T10:18:23;101209.84;;;2.86;71.34
56582;BME280;42463;52.214;21.238;2023-01-28T10:20:53;101204.73;;;2.87;71.81
56582;BME280;42463;52.214;21.238;2023-01-28T10:23:24;101202.84;;;2.89;71.54
56582;BME280;42463;52.214;21.238;2023-01-28T10:25:50;101201.61;;;2.94;71.64
56582;BME280;42463;52.214;21.238;2023-01-28T10:28:20;101203.40;;;2.98;71.88
56582;BME280;42463;52.214;21.238;2023-01-28T10:30:52;101203.36;;;3.01;71.57
56582;BME280;42463;52.214;21.238;2023-01-28T10:33:52;101202.53;;;3.04;71.66
56582;BME280;42463;52.214;21.238;2023-01-28T10:36:33;101203.91;;;3.05;71.57
56582;BME280;42463;52.214;21.238;2023-01-28T10:39:19;101207.75;;;3.08;71.59
56582;BME280;42463;52.214;21.238;2023-01-28T10:42:15;101205.67;;;3.10;71.39
56582;BME280;42463;52.214;21.238;2023-01-28T10:44:44;101201.44;;;3.08;71.02
56582;BME280;42463;52.214;21.238;2023-01-28T10:47:16;101201.48;;;3.05;71.20
56582;BME280;42463;52.214;21.238;2023-01-28T10:49:48;101199.52;;;3.04;71.23
56582;BME280;42463;52.214;21.238;2023-01-28T10:52:17;101195.70;;;3.07;71.46
56582;BME280;42463;52.214;21.238;2023-01-28T10:54:44;101190.45;;;3.06;71.17
56582;BME280;42463;52.214;21.238;2023-01-28T10:57:14;101193.48;;;3.07;71.34
56582;BME280;42463;52.214;21.238;2023-01-28T10:59:47;101194.67;;;3.05;70.87
56582;BME280;42463;52.214;21.238;2023-01-28T11:02:27;101191.66;;;3.05;70.99
56582;BME280;42463;52.214;21.238;2023-01-28T11:05:05;101194.55;;;3.05;70.93
56582;BME280;42463;52.214;21.238;2023-01-28T11:07:31;101190.63;;;3.04;70.91
56582;BME280;42463;52.214;21.238;2023-01-28T11:09:58;101186.60;;;3.03;71.03
56582;BME280;42463;52.214;21.238;2023-01-28T11:12:30;101182.08;;;3.00;71.00
56582;BME280;42463;52.214;21.238;2023-01-28T11:14:58;101181.35;;;2.99;71.14
56582;BME280;42463;52.214;21.238;2023-01-28T11:17:27;101178.30;;;2.96;71.17
56582;BME280;42463;52.214;21.238;2023-01-28T11:19:54;101177.09;;;2.91;71.27
56582;BME280;42463;52.214;21.238;2023-01-28T11:22:40;101171.29;;;2.92;71.20
56582;BME280;42463;52.214;21.238;2023-01-28T11:25:17;101169.56;;;2.93;71.10
56582;BME280;42463;52.214;21.238;2023-01-28T11:27:50;101168.14;;;2.94;71.47
56582;BME280;42463;52.214;21.238;2023-01-28T11:30:25;101169.61;;;2.97;71.05
56582;BME280;42463;52.214;21.238;2023-01-28T11:33:17;101174.50;;;2.89;70.86
56582;BME280;42463;52.214;21.238;2023-01-28T11:36:11;101174.11;;;2.87;70.95
56582;BME280;42463;52.214;21.238;2023-01-28T11:38:49;101172.45;;;2.89;71.20
56582;BME280;42463;52.214;21.238;2023-01-28T11:41:36;101166.11;;;2.90;70.93
56582;BME280;42463;52.214;21.238;2023-01-28T11:44:14;101170.21;;;2.92;71.13
56582;BME280;42463;52.214;21.238;2023-01-28T11:46:51;101163.52;;;2.90;70.99
56582;BME280;42463;52.214;21.238;2023-01-28T11:49:29;101162.91;;;2.92;71.10
56582;BME280;42463;52.214;21.238;2023-01-28T11:52:17;101160.84;;;2.97;70.86
56582;BME280;42463;52.214;21.238;2023-01-28T11:54:58;101163.40;;;2.98;70.72
56582;BME280;42463;52.214;21.238;2023-01-28T11:57:49;101162.73;;;2.96;70.52
56582;BME280;42463;52.214;21.238;2023-01-28T12:00:30;101164.04;;;2.96;70.91
56582;BME280;42463;52.214;21.238;2023-01-28T12:03:08;101165.95;;;2.97;70.83
56582;BME280;42463;52.214;21.238;2023-01-28T12:05:50;101162.04;;;2.98;70.88
56582;BME280;42463;52.214;21.238;2023-01-28T12:08:25;101158.36;;;2.97;70.79
56582;BME280;42463;52.214;21.238;2023-01-28T12:11:05;101155.02;;;2.90;70.80
56582;BME280;42463;52.214;21.238;2023-01-28T12:13:50;101160.76;;;2.87;70.87
56582;BME280;42463;52.214;21.238;2023-01-28T12:16:38;101157.14;;;2.85;70.81
56582;BME280;42463;52.214;21.238;2023-01-28T12:19:26;101151.05;;;2.83;70.71
56582;BME280;42463;52.214;21.238;2023-01-28T12:22:06;101155.30;;;2.84;71.04
56582;BME280;42463;52.214;21.238;2023-01-28T12:24:48;101157.15;;;2.74;70.55
56582;BME280;42463;52.214;21.238;2023-01-28T12:27:26;101154.71;;;2.65;71.06
56582;BME280;42463;52.214;21.238;2023-01-28T12:30:02;101160.31;;;2.70;71.63
56582;BME280;42463;52.214;21.238;2023-01-28T12:32:47;101159.01;;;2.77;71.54
56582;BME280;42463;52.214;21.238;2023-01-28T12:35:36;101157.09;;;2.78;71.40
56582;BME280;42463;52.214;21.238;2023-01-28T12:38:14;101154.67;;;2.77;71.24
56582;BME280;42463;52.214;21.238;2023-01-28T12:40:56;101153.61;;;2.77;71.21
56582;BME280;42463;52.214;21.238;2023-01-28T12:43:40;101151.15;;;2.81;71.39
56582;BME280;42463;52.214;21.238;2023-01-28T12:46:16;101151.83;;;2.86;71.41
56582;BME280;42463;52.214;21.238;2023-01-28T12:48:48;101146.80;;;2.86;70.86
56582;BME280;42463;52.214;21.238;2023-01-28T12:51:33;101152.49;;;2.89;71.18
56582;BME280;42463;52.214;21.238;2023-01-28T12:54:34;101153.46;;;2.97;71.22
56582;BME280;42463;52.214;21.238;2023-01-28T12:57:15;101154.40;;;3.03;70.79
56582;BME280;42463;52.214;21.238;2023-01-28T12:59:51;101156.33;;;3.06;70.87
56582;BME280;42463;52.214;21.238;2023-01-28T13:02:28;101160.61;;;3.09;70.65
56582;BME280;42463;52.214;21.238;2023-01-28T13:05:03;101165.65;;;3.03;70.24
56582;BME280;42463;52.214;21.238;2023-01-28T13:07:31;101164.80;;;3.03;70.61
56582;BME280;42463;52.214;21.238;2023-01-28T13:10:05;101164.34;;;3.03;70.51
56582;BME280;42463;52.214;21.238;2023-01-28T13:12:36;101158.55;;;3.01;70.35
56582;BME280;42463;52.214;21.238;2023-01-28T13:15:12;101156.75;;;2.97;70.45
56582;BME280;42463;52.214;21.238;2023-01-28T13:17:56;101155.08;;;2.94;70.44
56582;BME280;42463;52.214;21.238;2023-01-28T13:20:46;101156.55;;;2.94;70.54
56582;BME280;42463;52.214;21.238;2023-01-28T13:23:25;101154.75;;;2.94;70.38
56582;BME280;42463;52.214;21.238;2023-01-28T13:25:55;101156.80;;;2.90;70.13
56582;BME280;42463;52.214;21.238;2023-01-28T13:28:36;101142.95;;;2.78;70.62
56582;BME280;42463;52.214;21.238;2023-01-28T13:31:05;101160.27;;;2.91;70.95